sensor_id;sensor_type;location;lat;lon;timestamp;pressure;altitude;pressure_sealevel;temperature;humidity
28630;BME280;15817;42.130;24.762;2023-03-03T00:02:12;100198.47;;;6.20;100.00
28630;BME280;15817;42.130;24.762;2023-03-03T00:04:40;100194.94;;;6.20;100.00
28630;BME280;15817;42.130;24.762;2023-03-03T00:07:10;100192.28;;;6.18;100.00
28630;BME280;15817;42.130;24.762;2023-03-03T00:09:36;100196.72;;;6.21;100.00
28630;BME280;15817;42.130;24.762;2023-03-03T00:12:20;100180.94;;;6.25;100.00
28630;BME280;15817;42.130;24.762;2023-03-03T00:14:46;100168.59;;;6.24;100.00
28630;BME280;15817;42.130;24.762;2023-03-03T00:17:21;100178.31;;;6.27;100.00
28630;BME280;15817;42.130;24.762;2023-03-03T00:19:56;100158.88;;;6.20;100.00
28630;BME280;15817;42.130;24.762;2023-03-03T00:22:35;100156.19;;;6.18;100.00
28630;BME280;15817;42.130;24.762;2023-03-03T00:25:28;100163.41;;;6.29;100.00
28630;BME280;15817;42.130;24.762;2023-03-03T00:27:55;100163.44;;;6.30;100.00
28630;BME280;15817;42.130;24.762;2023-03-03T00:30:27;100151.97;;;6.30;100.00
28630;BME280;15817;42.130;24.762;2023-03-03T00:32:54;100155.56;;;6.33;100.00
28630;BME280;15817;42.130;24.762;2023-03-03T00:38:01;100144.88;;;6.27;100.00
28630;BME280;15817;42.130;24.762;2023-03-03T00:40:46;100122.84;;;6.27;100.00
28630;BME280;15817;42.130;24.762;2023-03-03T00:43:29;100137.91;;;6.31;100.00
28630;BME280;15817;42.130;24.762;2023-03-03T00:45:58;100130.88;;;6.31;100.00
28630;BME280;15817;42.130;24.762;2023-03-03T00:48:29;100128.13;;;6.27;100.00
28630;BME280;15817;42.130;24.762;2023-03-03T00:50:59;100124.56;;;6.22;100.00
28630;BME280;15817;42.130;24.762;2023-03-03T00:53:29;100116.63;;;6.22;100.00
28630;BME280;15817;42.130;24.762;2023-03-03T00:55:55;100121.91;;;6.20;100.00
28630;BME280;15817;42.130;24.762;2023-03-03T00:58:22;100111.22;;;6.14;100.00
28630;BME280;15817;42.130;24.762;2023-03-03T01:00:53;100110.31;;;6.13;100.00
28630;BME280;15817;42.130;24.762;2023-03-03T01:03:25;100114.75;;;6.14;100.00
28630;BME280;15817;42.130;24.762;2023-03-03T01:05:54;100109.47;;;6.14;100.00
28630;BME280;15817;42.130;24.762;2023-03-03T01:08:21;100099.72;;;6.12;100.00
28630;BME280;15817;42.130;24.762;2023-03-03T01:10:51;100122.75;;;6.19;100.00
28630;BME280;15817;42.130;24.762;2023-03-03T01:13:19;100114.84;;;6.21;100.00
28630;BME280;15817;42.130;24.762;2023-03-03T01:15:48;100110.31;;;6.13;100.00
28630;BME280;15817;42.130;24.762;2023-03-03T01:18:14;100108.72;;;6.22;100.00
28630;BME280;15817;42.130;24.762;2023-03-03T01:20:41;100098.94;;;6.16;100.00
28630;BME280;15817;42.130;24.762;2023-03-03T01:23:10;100100.72;;;6.18;100.00
28630;BME280;15817;42.130;24.762;2023-03-03T01:25:36;100105.13;;;6.18;100.00
28630;BME280;15817;42.130;24.762;2023-03-03T01:28:04;100110.41;;;6.18;100.00
28630;BME280;15817;42.130;24.762;2023-03-03T01:30:30;100106.91;;;6.19;100.00
28630;BME280;15817;42.130;24.762;2023-03-03T01:32:56;100106.00;;;6.17;100.00
28630;BME280;15817;42.130;24.762;2023-03-03T01:35:22;100105.13;;;6.18;100.00
28630;BME280;15817;42.130;24.762;2023-03-03T01:37:49;100100.72;;;6.17;100.00
28630;BME280;15817;42.130;24.762;2023-03-03T01:40:21;100114.88;;;6.22;100.00
28630;BME280;15817;42.130;24.762;2023-03-03T01:42:47;100110.34;;;6.15;100.00
28630;BME280;15817;42.130;24.762;2023-03-03T01:48:15;100106.00;;;6.17;100.00
28630;BME280;15817;42.130;24.762;2023-03-03T01:50:46;100116.69;;;6.26;100.00
28630;BME280;15817;42.130;24.762;2023-03-03T01:53:17;100104.31;;;6.24;100.00
28630;BME280;15817;42.130;24.762;2023-03-03T01:55:44;100101.69;;;6.24;100.00
28630;BME280;15817;42.130;24.762;2023-03-03T01:58:15;100099.03;;;6.22;100.00
28630;BME280;15817;42.130;24.762;2023-03-03T02:00:45;100103.47;;;6.25;100.00
28630;BME280;15817;42.130;24.762;2023-03-03T02:03:15;100092.88;;;6.22;100.00
28630;BME280;15817;42.130;24.762;2023-03-03T02:05:42;100098.25;;;6.29;100.00
28630;BME280;15817;42.130;24.762;2023-03-03T02:08:15;100084.94;;;6.23;100.00
28630;BME280;15817;42.130;24.762;2023-03-03T02:10:44;100083.25;;;6.27;100.00
28630;BME280;15817;42.130;24.762;2023-03-03T02:13:10;100093.91;;;6.33;100.00
28630;BME280;15817;42.130;24.762;2023-03-03T02:15:36;100092.09;;;6.30;100.00
28630;BME280;15817;42.130;24.762;2023-03-03T02:18:09;100078.84;;;6.27;100.00
28630;BME280;15817;42.130;24.762;2023-03-03T02:20:40;100089.50;;;6.32;100.00
28630;BME280;15817;42.130;24.762;2023-03-03T02:26:12;100080.66;;;6.30;100.00
28630;BME280;15817;42.130;24.762;2023-03-03T02:28:40;100069.13;;;6.25;100.00
28630;BME280;15817;42.130;24.762;2023-03-03T02:31:14;100077.13;;;6.29;100.00
28630;BME280;15817;42.130;24.762;2023-03-03T02:33:44;100082.47;;;6.32;100.00
28630;BME280;15817;42.130;24.762;2023-03-03T02:36:19;100079.81;;;6.32;100.00
28630;BME280;15817;42.130;24.762;2023-03-03T02:39:06;100070.97;;;6.30;100.00
28630;BME280;15817;42.130;24.762;2023-03-03T02:44:14;100073.66;;;6.32;100.00
28630;BME280;15817;42.130;24.762;2023-03-03T02:46:45;100072.75;;;6.31;100.00
28630;BME280;15817;42.130;24.762;2023-03-03T02:49:14;100077.19;;;6.32;100.00
28630;BME280;15817;42.130;24.762;2023-03-03T02:51:40;100076.31;;;6.33;100.00
28630;BME280;15817;42.130;24.762;2023-03-03T02:54:08;100086.94;;;6.39;100.00
28630;BME280;15817;42.130;24.762;2023-03-03T02:56:35;100081.59;;;6.35;100.00
28630;BME280;15817;42.130;24.762;2023-03-03T02:59:03;100070.13;;;6.31;100.00
28630;BME280;15817;42.130;24.762;2023-03-03T03:01:34;100079.84;;;6.34;100.00
28630;BME280;15817;42.130;24.762;2023-03-03T03:04:18;100071.88;;;6.31;100.00
28630;BME280;15817;42.130;24.762;2023-03-03T03:06:47;100077.22;;;6.37;100.00
28630;BME280;15817;42.130;24.762;2023-03-03T03:09:16;100085.19;;;6.38;100.00
28630;BME280;15817;42.130;24.762;2023-03-03T03:11:43;100090.50;;;6.41;100.00
28630;BME280;15817;42.130;24.762;2023-03-03T03:14:11;100074.59;;;6.38;100.00
28630;BME280;15817;42.130;24.762;2023-03-03T03:16:41;100073.66;;;6.35;100.00
28630;BME280;15817;42.130;24.762;2023-03-03T03:19:07;100082.59;;;6.41;100.00
28630;BME280;15817;42.130;24.762;2023-03-03T03:21:38;100063.94;;;6.31;100.00
28630;BME280;15817;42.130;24.762;2023-03-03T03:24:05;100059.56;;;6.31;100.00
28630;BME280;15817;42.130;24.762;2023-03-03T03:26:32;100066.63;;;6.35;100.00
28630;BME280;15817;42.130;24.762;2023-03-03T03:28:58;100059.56;;;6.33;100.00
28630;BME280;15817;42.130;24.762;2023-03-03T03:31:24;100058.69;;;6.32;100.00
28630;BME280;15817;42.130;24.762;2023-03-03T03:33:50;100055.97;;;6.28;100.00
28630;BME280;15817;42.130;24.762;2023-03-03T03:36:18;100062.19;;;6.31;100.00
28630;BME280;15817;42.130;24.762;2023-03-03T03:38:44;100066.63;;;6.35;100.00
28630;BME280;15817;42.130;24.762;2023-03-03T03:41:11;100065.75;;;6.35;100.00
28630;BME280;15817;42.130;24.762;2023-03-03T03:43:37;100067.53;;;6.37;100.00
28630;BME280;15817;42.130;24.762;2023-03-03T03:46:03;100058.63;;;6.29;100.00
28630;BME280;15817;42.130;24.762;2023-03-03T03:48:35;100065.72;;;6.32;100.00
28630;BME280;15817;42.130;24.762;2023-03-03T03:51:05;100060.41;;;6.30;100.00
28630;BME280;15817;42.130;24.762;2023-03-03T03:53:32;100068.38;;;6.35;100.00
28630;BME280;15817;42.130;24.762;2023-03-03T03:55:58;100074.56;;;6.34;100.00
28630;BME280;15817;42.130;24.762;2023-03-03T03:58:26;100062.19;;;6.31;100.00
28630;BME280;15817;42.130;24.762;2023-03-03T04:01:05;100063.09;;;6.33;100.00
28630;BME280;15817;42.130;24.762;2023-03-03T04:03:34;100070.22;;;6.39;100.00
28630;BME280;15817;42.130;24.762;2023-03-03T04:06:03;100071.06;;;6.36;100.00
28630;BME280;15817;42.130;24.762;2023-03-03T04:08:35;100061.28;;;6.29;100.00
28630;BME280;15817;42.130;24.762;2023-03-03T04:11:06;100051.53;;;6.27;100.00
28630;BME280;15817;42.130;24.762;2023-03-03T04:13:32;100056.88;;;6.30;100.00
28630;BME280;15817;42.130;24.762;2023-03-03T04:16:01;100054.19;;;6.27;100.00
28630;BME280;15817;42.130;24.762;2023-03-03T04:18:27;100058.56;;;6.25;100.00
28630;BME280;15817;42.130;24.762;2023-03-03T04:21:41;100056.84;;;6.28;100.00
28630;BME280;15817;42.130;24.762;2023-03-03T04:24:07;100067.53;;;6.34;100.00
28630;BME280;15817;42.130;24.762;2023-03-03T04:26:44;100063.94;;;6.31;100.00
28630;BME280;15817;42.130;24.762;2023-03-03T04:29:10;100049.78;;;6.26;100.00
28630;BME280;15817;42.130;24.762;2023-03-03T04:31:38;100054.13;;;6.24;100.00
28630;BME280;15817;42.130;24.762;2023-03-03T04:34:10;100056.84;;;6.28;100.00
28630;BME280;15817;42.130;24.762;2023-03-03T04:36:37;100055.03;;;6.23;100.00
28630;BME280;15817;42.130;24.762;2023-03-03T04:39:03;100054.16;;;6.25;100.00
28630;BME280;15817;42.130;24.762;2023-03-03T04:41:32;100059.44;;;6.22;100.00
28630;BME280;15817;42.130;24.762;2023-03-03T04:43:58;100054.13;;;6.21;100.00
28630;BME280;15817;42.130;24.762;2023-03-03T04:46:31;100047.13;;;6.23;100.00
28630;BME280;15817;42.130;24.762;2023-03-03T04:48:57;100052.38;;;6.24;100.00
28630;BME280;15817;42.130;24.762;2023-03-03T04:51:25;100056.81;;;6.25;100.00
28630;BME280;15817;42.130;24.762;2023-03-03T04:53:54;100066.56;;;6.29;100.00
28630;BME280;15817;42.130;24.762;2023-03-03T04:56:20;100050.66;;;6.26;100.00
28630;BME280;15817;42.130;24.762;2023-03-03T04:58:47;100049.75;;;6.24;100.00
28630;BME280;15817;42.130;24.762;2023-03-03T05:01:13;100053.25;;;6.23;100.00
28630;BME280;15817;42.130;24.762;2023-03-03T05:03:42;100063.00;;;6.27;100.00
28630;BME280;15817;42.130;24.762;2023-03-03T05:06:11;100062.09;;;6.25;100.00
28630;BME280;15817;42.130;24.762;2023-03-03T05:08:43;100066.59;;;6.31;100.00
28630;BME280;15817;42.130;24.762;2023-03-03T05:11:09;100066.56;;;6.29;100.00
28630;BME280;15817;42.130;24.762;2023-03-03T05:13:40;100063.88;;;6.28;100.00
28630;BME280;15817;42.130;24.762;2023-03-03T05:16:10;100072.72;;;6.30;100.00
28630;BME280;15817;42.130;24.762;2023-03-03T05:18:36;100070.03;;;6.27;100.00
28630;BME280;15817;42.130;24.762;2023-03-03T05:21:02;100065.72;;;6.32;100.00
28630;BME280;15817;42.130;24.762;2023-03-03T05:23:28;100075.38;;;6.30;100.00
28630;BME280;15817;42.130;24.762;2023-03-03T05:25:56;100073.59;;;6.29;100.00
28630;BME280;15817;42.130;24.762;2023-03-03T05:28:22;100069.97;;;6.24;100.00
28630;BME280;15817;42.130;24.762;2023-03-03T05:30:48;100070.06;;;6.28;100.00
28630;BME280;15817;42.130;24.762;2023-03-03T05:33:16;100070.03;;;6.27;100.00
28630;BME280;15817;42.130;24.762;2023-03-03T05:35:42;100064.72;;;6.22;100.00
28630;BME280;15817;42.130;24.762;2023-03-03T05:38:08;100060.31;;;6.23;100.00
28630;BME280;15817;42.130;24.762;2023-03-03T05:40:34;100065.59;;;6.23;100.00
28630;BME280;15817;42.130;24.762;2023-03-03T05:43:03;100068.28;;;6.27;100.00
28630;BME280;15817;42.130;24.762;2023-03-03T05:45:29;100074.44;;;6.26;100.00
28630;BME280;15817;42.130;24.762;2023-03-03T05:47:58;100077.97;;;6.28;100.00
28630;BME280;15817;42.130;24.762;2023-03-03T05:50:23;100072.69;;;6.27;100.00
28630;BME280;15817;42.130;24.762;2023-03-03T05:52:50;100074.50;;;6.31;100.00
28630;BME280;15817;42.130;24.762;2023-03-03T05:55:17;100094.81;;;6.36;100.00
28630;BME280;15817;42.130;24.762;2023-03-03T05:57:52;100077.13;;;6.29;100.00
28630;BME280;15817;42.130;24.762;2023-03-03T06:00:18;100078.09;;;6.34;100.00
28630;BME280;15817;42.130;24.762;2023-03-03T06:02:44;100071.91;;;6.32;100.00
28630;BME280;15817;42.130;24.762;2023-03-03T06:05:19;100079.88;;;6.37;100.00
28630;BME280;15817;42.130;24.762;2023-03-03T06:07:49;100090.44;;;6.37;100.00
28630;BME280;15817;42.130;24.762;2023-03-03T06:10:18;100079.84;;;6.34;100.00
28630;BME280;15817;42.130;24.762;2023-03-03T06:12:51;100086.09;;;6.40;100.00
28630;BME280;15817;42.130;24.762;2023-03-03T06:15:17;100081.66;;;6.39;100.00
28630;BME280;15817;42.130;24.762;2023-03-03T06:17:43;100083.44;;;6.40;100.00
28630;BME280;15817;42.130;24.762;2023-03-03T06:20:09;100101.19;;;6.49;100.00
28630;BME280;15817;42.130;24.762;2023-03-03T06:22:35;100102.94;;;6.48;100.00
28630;BME280;15817;42.130;24.762;2023-03-03T06:25:00;100083.44;;;6.40;100.00
28630;BME280;15817;42.130;24.762;2023-03-03T06:27:26;100094.00;;;6.40;100.00
28630;BME280;15817;42.130;24.762;2023-03-03T06:29:52;100093.19;;;6.43;100.00
28630;BME280;15817;42.130;24.762;2023-03-03T06:32:18;100094.91;;;6.41;100.00
28630;BME280;15817;42.130;24.762;2023-03-03T06:34:47;100092.22;;;6.38;100.00
28630;BME280;15817;42.130;24.762;2023-03-03T06:37:13;100100.19;;;6.41;100.00
28630;BME280;15817;42.130;24.762;2023-03-03T06:39:49;100109.06;;;6.47;100.00
28630;BME280;15817;42.130;24.762;2023-03-03T06:42:17;100107.38;;;6.51;100.00
28630;BME280;15817;42.130;24.762;2023-03-03T06:44:44;100100.28;;;6.45;100.00
28630;BME280;15817;42.130;24.762;2023-03-03T06:47:10;100109.16;;;6.52;100.00
28630;BME280;15817;42.130;24.762;2023-03-03T06:49:36;100087.03;;;6.47;100.00
28630;BME280;15817;42.130;24.762;2023-03-03T06:52:17;100093.22;;;6.46;100.00
28630;BME280;15817;42.130;24.762;2023-03-03T06:54:52;100101.19;;;6.49;100.00
28630;BME280;15817;42.130;24.762;2023-03-03T06:57:26;100102.13;;;6.52;100.00
28630;BME280;15817;42.130;24.762;2023-03-03T06:59:55;100092.34;;;6.47;100.00
28630;BME280;15817;42.130;24.762;2023-03-03T07:02:27;100107.38;;;6.51;100.00
28630;BME280;15817;42.130;24.762;2023-03-03T07:04:54;100096.75;;;6.48;100.00
28630;BME280;15817;42.130;24.762;2023-03-03T07:07:23;100092.41;;;6.51;100.00
28630;BME280;15817;42.130;24.762;2023-03-03T07:09:54;100099.53;;;6.56;100.00
28630;BME280;15817;42.130;24.762;2023-03-03T07:12:23;100098.66;;;6.57;100.00
28630;BME280;15817;42.130;24.762;2023-03-03T07:15:31;100105.75;;;6.61;100.00
28630;BME280;15817;42.130;24.762;2023-03-03T07:18:10;100103.94;;;6.57;100.00
28630;BME280;15817;42.130;24.762;2023-03-03T07:20:55;100095.97;;;6.53;100.00
28630;BME280;15817;42.130;24.762;2023-03-03T07:23:55;100108.41;;;6.62;100.00
28630;BME280;15817;42.130;24.762;2023-03-03T07:26:29;100098.66;;;6.58;100.00
28630;BME280;15817;42.130;24.762;2023-03-03T07:29:22;100101.31;;;6.60;100.00
28630;BME280;15817;42.130;24.762;2023-03-03T07:31:55;100097.88;;;6.64;100.00
28630;BME280;15817;42.130;24.762;2023-03-03T07:37:36;100100.56;;;6.70;100.00
28630;BME280;15817;42.130;24.762;2023-03-03T07:40:38;100097.03;;;6.66;100.00
28630;BME280;15817;42.130;24.762;2023-03-03T07:49:30;100090.75;;;6.60;100.00
28630;BME280;15817;42.130;24.762;2023-03-03T07:52:30;100077.59;;;6.64;100.00
28630;BME280;15817;42.130;24.762;2023-03-03T08:03:57;100087.31;;;6.65;100.00
28630;BME280;15817;42.130;24.762;2023-03-03T08:06:41;100092.66;;;6.71;100.00
28630;BME280;15817;42.130;24.762;2023-03-03T08:14:40;100077.63;;;6.66;100.00
28630;BME280;15817;42.130;24.762;2023-03-03T08:17:24;100076.81;;;6.71;100.00
28630;BME280;15817;42.130;24.762;2023-03-03T08:19:56;100078.59;;;6.74;100.00
28630;BME280;15817;42.130;24.762;2023-03-03T08:22:37;100067.09;;;6.70;100.00
28630;BME280;15817;42.130;24.762;2023-03-03T08:25:09;100067.16;;;6.73;100.00
28630;BME280;15817;42.130;24.762;2023-03-03T08:27:50;100068.06;;;6.75;100.00
28630;BME280;15817;42.130;24.762;2023-03-03T08:30:19;100060.19;;;6.80;100.00
28630;BME280;15817;42.130;24.762;2023-03-03T08:32:45;100059.31;;;6.81;100.00
28630;BME280;15817;42.130;24.762;2023-03-03T08:35:13;100059.41;;;6.87;100.00
28630;BME280;15817;42.130;24.762;2023-03-03T08:37:39;100048.78;;;6.84;100.00
28630;BME280;15817;42.130;24.762;2023-03-03T08:40:12;100053.22;;;6.86;100.00
28630;BME280;15817;42.130;24.762;2023-03-03T08:42:41;100055.06;;;6.92;100.00
28630;BME280;15817;42.130;24.762;2023-03-03T08:45:09;100045.25;;;6.85;100.00
28630;BME280;15817;42.130;24.762;2023-03-03T08:47:35;100041.72;;;6.84;100.00
28630;BME280;15817;42.130;24.762;2023-03-03T08:50:01;100057.75;;;6.97;100.00
28630;BME280;15817;42.130;24.762;2023-03-03T08:52:36;100042.69;;;6.89;100.00
28630;BME280;15817;42.130;24.762;2023-03-03T08:55:05;100048.84;;;6.88;100.00
28630;BME280;15817;42.130;24.762;2023-03-03T08:57:31;100054.16;;;6.93;100.00
28630;BME280;15817;42.130;24.762;2023-03-03T08:59:59;100059.47;;;6.95;100.00
28630;BME280;15817;42.130;24.762;2023-03-03T09:02:25;100038.25;;;6.87;100.00
28630;BME280;15817;42.130;24.762;2023-03-03T09:04:57;100047.06;;;6.87;100.00
28630;BME280;15817;42.130;24.762;2023-03-03T09:07:25;100051.47;;;6.87;100.00
28630;BME280;15817;42.130;24.762;2023-03-03T09:09:54;100047.97;;;6.89;100.00
28630;BME280;15817;42.130;24.762;2023-03-03T09:15:40;100032.06;;;6.86;100.00
28630;BME280;15817;42.130;24.762;2023-03-03T09:22:46;100035.69;;;6.96;100.00
28630;BME280;15817;42.130;24.762;2023-03-03T09:25:39;100032.22;;;7.00;100.00
28630;BME280;15817;42.130;24.762;2023-03-03T09:28:46;100034.00;;;7.00;100.00
28630;BME280;15817;42.130;24.762;2023-03-03T09:38:28;100028.06;;;7.23;100.00
28630;BME280;15817;42.130;24.762;2023-03-03T09:50:16;100031.63;;;7.25;100.00
28630;BME280;15817;42.130;24.762;2023-03-03T09:55:40;100026.28;;;7.22;100.00
28630;BME280;15817;42.130;24.762;2023-03-03T10:06:44;100021.84;;;7.20;100.00
28630;BME280;15817;42.130;24.762;2023-03-03T10:10:05;100023.53;;;7.12;100.00
28630;BME280;15817;42.130;24.762;2023-03-03T10:15:48;100029.75;;;7.18;100.00
28630;BME280;15817;42.130;24.762;2023-03-03T10:23:45;100002.44;;;7.15;100.00
28630;BME280;15817;42.130;24.762;2023-03-03T10:26:47;99999.78;;;7.15;100.00
28630;BME280;15817;42.130;24.762;2023-03-03T10:29:39;100014.00;;;7.26;100.00
28630;BME280;15817;42.130;24.762;2023-03-03T10:35:10;100008.66;;;7.23;100.00
28630;BME280;15817;42.130;24.762;2023-03-03T10:40:49;99994.50;;;7.19;100.00
28630;BME280;15817;42.130;24.762;2023-03-03T10:44:23;99990.97;;;7.19;100.00
28630;BME280;15817;42.130;24.762;2023-03-03T10:47:30;99981.28;;;7.18;100.00
28630;BME280;15817;42.130;24.762;2023-03-03T10:50:43;99975.94;;;7.12;100.00
28630;BME280;15817;42.130;24.762;2023-03-03T10:53:33;99986.56;;;7.19;100.00
28630;BME280;15817;42.130;24.762;2023-03-03T10:56:22;99983.09;;;7.22;100.00
28630;BME280;15817;42.130;24.762;2023-03-03T10:59:00;99983.03;;;7.19;100.00
28630;BME280;15817;42.130;24.762;2023-03-03T11:08:17;99967.22;;;7.23;100.00
28630;BME280;15817;42.130;24.762;2023-03-03T11:10:57;99961.94;;;7.23;100.00
28630;BME280;15817;42.130;24.762;2023-03-03T11:16:19;99957.53;;;7.24;100.00
28630;BME280;15817;42.130;24.762;2023-03-03T11:21:51;99952.38;;;7.38;100.00
28630;BME280;15817;42.130;24.762;2023-03-03T11:24:30;99956.78;;;7.42;100.00
28630;BME280;15817;42.130;24.762;2023-03-03T11:27:30;99955.88;;;7.40;100.00
28630;BME280;15817;42.130;24.762;2023-03-03T11:30:04;99945.31;;;7.37;100.00
28630;BME280;15817;42.130;24.762;2023-03-03T11:32:42;99944.44;;;7.38;100.00
28630;BME280;15817;42.130;24.762;2023-03-03T11:40:55;99927.66;;;7.37;100.00
28630;BME280;15817;42.130;24.762;2023-03-03T11:43:31;99931.13;;;7.32;100.00
28630;BME280;15817;42.130;24.762;2023-03-03T11:46:48;99928.56;;;7.38;100.00
28630;BME280;15817;42.130;24.762;2023-03-03T11:49:38;99917.13;;;7.43;100.00
28630;BME280;15817;42.130;24.762;2023-03-03T11:52:26;99921.63;;;7.58;100.00
28630;BME280;15817;42.130;24.762;2023-03-03T11:55:16;99905.72;;;7.53;100.00
28630;BME280;15817;42.130;24.762;2023-03-03T12:00:59;99902.22;;;7.57;100.00
28630;BME280;15817;42.130;24.762;2023-03-03T12:03:35;99916.38;;;7.66;100.00
28630;BME280;15817;42.130;24.762;2023-03-03T12:12:59;99888.94;;;7.51;100.00
28630;BME280;15817;42.130;24.762;2023-03-03T12:15:37;99904.06;;;7.69;100.00
28630;BME280;15817;42.130;24.762;2023-03-03T12:34:02;99884.63;;;7.67;100.00
28630;BME280;15817;42.130;24.762;2023-03-03T12:46:44;99899.72;;;7.85;100.00
28630;BME280;15817;42.130;24.762;2023-03-03T12:49:09;99886.47;;;7.79;100.00
28630;BME280;15817;42.130;24.762;2023-03-03T13:37:56;99870.59;;;7.82;100.00
28630;BME280;15817;42.130;24.762;2023-03-03T13:47:20;99862.69;;;7.83;100.00
28630;BME280;15817;42.130;24.762;2023-03-03T14:00:59;99883.00;;;7.92;100.00
28630;BME280;15817;42.130;24.762;2023-03-03T14:06:26;99857.38;;;7.83;100.00
28630;BME280;15817;42.130;24.762;2023-03-03T14:20:52;99864.47;;;7.90;100.00
28630;BME280;15817;42.130;24.762;2023-03-03T14:23:47;99860.94;;;7.90;100.00
28630;BME280;15817;42.130;24.762;2023-03-03T14:26:17;99850.31;;;7.85;100.00
28630;BME280;15817;42.130;24.762;2023-03-03T14:28:47;99856.50;;;7.89;100.00
28630;BME280;15817;42.130;24.762;2023-03-03T14:31:25;99853.00;;;7.91;100.00
28630;BME280;15817;42.130;24.762;2023-03-03T14:36:59;99843.28;;;7.84;100.00
28630;BME280;15817;42.130;24.762;2023-03-03T14:39:49;99847.69;;;7.88;100.00
28630;BME280;15817;42.130;24.762;2023-03-03T14:42:47;99845.06;;;7.91;100.00
28630;BME280;15817;42.130;24.762;2023-03-03T14:45:35;99851.22;;;7.96;100.00
28630;BME280;15817;42.130;24.762;2023-03-03T14:48:19;99827.38;;;7.87;100.00
28630;BME280;15817;42.130;24.762;2023-03-03T15:03:58;99832.69;;;7.92;100.00
28630;BME280;15817;42.130;24.762;2023-03-03T15:07:38;99842.44;;;7.96;100.00
28630;BME280;15817;42.130;24.762;2023-03-03T15:10:25;99843.31;;;7.98;100.00
28630;BME280;15817;42.130;24.762;2023-03-03T15:16:11;99837.13;;;7.94;100.00
28630;BME280;15817;42.130;24.762;2023-03-03T15:19:22;99852.16;;;8.00;100.00
28630;BME280;15817;42.130;24.762;2023-03-03T15:22:05;99848.59;;;7.96;100.00
28630;BME280;15817;42.130;24.762;2023-03-03T15:28:54;99853.00;;;7.93;100.00
28630;BME280;15817;42.130;24.762;2023-03-03T15:40:47;99839.72;;;7.84;100.00
28630;BME280;15817;42.130;24.762;2023-03-03T15:43:33;99852.97;;;7.82;100.00
28630;BME280;15817;42.130;24.762;2023-03-03T16:02:51;99868.88;;;7.90;100.00
28630;BME280;15817;42.130;24.762;2023-03-03T16:27:41;99896.16;;;7.78;100.00
28630;BME280;15817;42.130;24.762;2023-03-03T16:30:45;99909.44;;;7.86;100.00
28630;BME280;15817;42.130;24.762;2023-03-03T16:38:36;99899.72;;;7.80;100.00
28630;BME280;15817;42.130;24.762;2023-03-03T16:56:45;99921.75;;;7.76;100.00
28630;BME280;15817;42.130;24.762;2023-03-03T17:02:47;99920.84;;;7.74;100.00
28630;BME280;15817;42.130;24.762;2023-03-03T17:17:32;99919.91;;;7.64;100.00
28630;BME280;15817;42.130;24.762;2023-03-03T17:29:04;99930.41;;;7.54;100.00
28630;BME280;15817;42.130;24.762;2023-03-03T17:42:36;99967.50;;;7.57;100.00
28630;BME280;15817;42.130;24.762;2023-03-03T17:45:13;99950.69;;;7.52;100.00
28630;BME280;15817;42.130;24.762;2023-03-03T17:59:23;99960.41;;;7.50;100.00
28630;BME280;15817;42.130;24.762;2023-03-03T18:11:22;99956.88;;;7.49;100.00
28630;BME280;15817;42.130;24.762;2023-03-03T18:14:23;99975.38;;;7.48;100.00
28630;BME280;15817;42.130;24.762;2023-03-03T18:23:31;99975.28;;;7.36;100.00
28630;BME280;15817;42.130;24.762;2023-03-03T18:26:03;99987.63;;;7.37;100.00
28630;BME280;15817;42.130;24.762;2023-03-03T18:28:49;99983.16;;;7.31;100.00
28630;BME280;15817;42.130;24.762;2023-03-03T18:31:23;99995.59;;;7.38;100.00
28630;BME280;15817;42.130;24.762;2023-03-03T18:42:55;99984.91;;;7.26;100.00
28630;BME280;15817;42.130;24.762;2023-03-03T18:48:14;99999.84;;;7.22;100.00
28630;BME280;15817;42.130;24.762;2023-03-03T18:50:49;100012.25;;;7.26;100.00
28630;BME280;15817;42.130;24.762;2023-03-03T18:53:27;100012.25;;;7.26;100.00
28630;BME280;15817;42.130;24.762;2023-03-03T18:56:08;100008.66;;;7.23;100.00
28630;BME280;15817;42.130;24.762;2023-03-03T18:58:48;99999.75;;;7.16;100.00
28630;BME280;15817;42.130;24.762;2023-03-03T19:01:33;100003.34;;;7.20;100.00
28630;BME280;15817;42.130;24.762;2023-03-03T19:09:46;100007.69;;;7.16;100.00
28630;BME280;15817;42.130;24.762;2023-03-03T19:12:17;99998.84;;;7.11;100.00
28630;BME280;15817;42.130;24.762;2023-03-03T19:14:50;100006.72;;;7.05;100.00
28630;BME280;15817;42.130;24.762;2023-03-03T19:23:45;100013.75;;;7.03;100.00
28630;BME280;15817;42.130;24.762;2023-03-03T19:34:48;100008.34;;;6.91;100.00
28630;BME280;15817;42.130;24.762;2023-03-03T20:03:46;100025.72;;;6.72;100.00
28630;BME280;15817;42.130;24.762;2023-03-03T20:09:34;100038.06;;;6.73;100.00
28630;BME280;15817;42.130;24.762;2023-03-03T20:15:25;100031.00;;;6.71;100.00
28630;BME280;15817;42.130;24.762;2023-03-03T20:20:53;100038.88;;;6.66;100.00
28630;BME280;15817;42.130;24.762;2023-03-03T20:26:54;100030.06;;;6.66;100.00
28630;BME280;15817;42.130;24.762;2023-03-03T20:35:42;100015.91;;;6.61;100.00
28630;BME280;15817;42.130;24.762;2023-03-03T20:38:24;100021.16;;;6.59;100.00
28630;BME280;15817;42.130;24.762;2023-03-03T20:49:58;100002.56;;;6.51;100.00
28630;BME280;15817;42.130;24.762;2023-03-03T20:52:39;99982.19;;;6.41;100.00
28630;BME280;15817;42.130;24.762;2023-03-03T21:05:26;99998.91;;;6.40;100.00
28630;BME280;15817;42.130;24.762;2023-03-03T21:08:13;99992.56;;;6.28;100.00
28630;BME280;15817;42.130;24.762;2023-03-03T21:16:37;100011.13;;;6.31;100.00